Strona główna
METAR-TAF:

METAR-TAF

Lotnisko :

Tak, Tajlandia

Szerokość geograficzna: 16-53N, Długość geograficzna: 099-09E, wysokość: 121 m

METAR: brakujący

czas: 06:05 (23:05 UTC)

Prognoza

Raport powstał 30 godziny i 5 minut temu, godzina 17:00 UTC
Prognoza ważna od 28 godzina 18 UTC do 29 godzina 18 UTC
Wiatr 5 kt od północno-północny wschód
Widzialność 10 km lub więcej
Rozproszone chmury na wysokości 2600 ft
Przejściowo
od 29 godzina 09 UTC do 29 godzina 15 UTC
Wiatr 15 kt od wschodnio-północny wschód
Widzialność: 4000 m
Mało chmury na wysokości 1500 ft
Przerywane chmury na wysokości 2600 ft
deszcz

TAF: VTPT 281700Z 2818/2918 02005KT 9999 SCT026 TEMPO 2909/2915 06015KT 4000 RA FEW015 BKN026

Obserwacja i prognoza pogody dla ponad 4000 lotnisk (raport METAR i TAF).

Dostępne stacje oznaczono żółtymi i czerwonymi punktami na mapie.

Najedź kursorem aby zobaczyć nazwę stacji.

Kliknij aby zobaczyć obserwacje i prognozy pogody.

Aby zmienić mapę: kliknij na zielony przycisk z czarnym krzyżykiem, aby powiększyć; na zielony przycisk z myślnikiem, aby pomniejszyć; na zielone strzałki, aby przejść do map sąsiednich.


METAR-TAF: